Terminal Aerodrome Forecast
Issued by NWS Cleveland, OH

Home | Current Version | Previous Version | Graphics & Text | Print | Product List | Glossary On
Versions: 1 2 3 4 5 6 7 8 9 10 11 12 13 14 15 16 17 18 19 20 21 22 23 24 25 26
024
FTUS41 KCLE 231125
TAFCLE
TAF
KCLE 231125Z 2312/2418 23005KT P6SM SCT040
      TEMPO 2312/2313 4SM BR
     FM231400 30005KT P6SM SKC
     FM240200 VRB03KT P6SM SKC
     FM241300 21007KT P6SM SKC=

USA.gov is the U.S. government's official web portal to all federal, state and local government web resources and services.